N35647 KTEB-KPNE
Flight info
| Callsign | N35647 |
|---|---|
| Flight time | 0h 27m |
| Altitude | 8000 |
| Route | SBJ ARD |
| Aircraft | C208/L-SDFGR/C |
Departure
| Time | 2026-05-01 07:58 |
|---|---|
| Airport | Teterboro Airport (KTEB) |
Arrival
| Time | 2026-05-01 08:25 |
|---|---|
| Airport | Northeast Philadelphia Airport (KPNE) |
| Time | Latitude | Longitude | Altitude | Speed | Heading |
|---|---|---|---|---|---|
| 2026-05-01 07:49 | 40.84698 | -74.06641 | 13 ft | 0 kts | 49° |
| 2026-05-01 07:52 | 40.84698 | -74.06640 | 13 ft | 0 kts | 49° |
| 2026-05-01 07:52 | 40.84700 | -74.06638 | 13 ft | 0 kts | 49° |
| 2026-05-01 07:55 | 40.84743 | -74.06683 | 18 ft | 5 kts | 285° |
| 2026-05-01 07:56 | 40.84634 | -74.06875 | 17 ft | 9 kts | 231° |
| 2026-05-01 07:56 | 40.84618 | -74.06950 | 16 ft | 6 kts | 319° |
| 2026-05-01 07:57 | 40.84665 | -74.06993 | 17 ft | 11 kts | 347° |
| 2026-05-01 07:57 | 40.85232 | -74.06196 | 424 ft | 94 kts | 50° |
| 2026-05-01 07:58 | 40.86154 | -74.04774 | 1314 ft | 116 kts | 39° |
| 2026-05-01 07:58 | 40.87412 | -74.04723 | 2023 ft | 118 kts | 301° |
| 2026-05-01 07:59 | 40.86457 | -74.06727 | 2701 ft | 154 kts | 222° |
| 2026-05-01 07:59 | 40.84638 | -74.08186 | 3429 ft | 152 kts | 219° |
| 2026-05-01 08:00 | 40.82556 | -74.12452 | 4893 ft | 135 kts | 248° |
| 2026-05-01 08:01 | 40.81284 | -74.15718 | 5984 ft | 131 kts | 247° |
| 2026-05-01 08:01 | 40.80868 | -74.16789 | 6346 ft | 131 kts | 246° |
| 2026-05-01 08:01 | 40.80453 | -74.17851 | 6695 ft | 130 kts | 246° |
| 2026-05-01 08:02 | 40.79636 | -74.19947 | 7402 ft | 127 kts | 247° |
| 2026-05-01 08:02 | 40.79235 | -74.20979 | 7759 ft | 126 kts | 248° |
| 2026-05-01 08:03 | 40.78382 | -74.23176 | 7962 ft | 148 kts | 247° |
| 2026-05-01 08:03 | 40.77899 | -74.24414 | 7968 ft | 155 kts | 247° |
| 2026-05-01 08:03 | 40.76894 | -74.26979 | 7975 ft | 159 kts | 246° |
| 2026-05-01 08:04 | 40.75873 | -74.29592 | 7968 ft | 160 kts | 247° |
| 2026-05-01 08:04 | 40.74847 | -74.32211 | 7969 ft | 161 kts | 247° |
| 2026-05-01 08:05 | 40.73819 | -74.34838 | 7966 ft | 161 kts | 246° |
| 2026-05-01 08:05 | 40.73303 | -74.36150 | 7971 ft | 162 kts | 247° |
| 2026-05-01 08:05 | 40.72788 | -74.37465 | 7973 ft | 161 kts | 247° |
| 2026-05-01 08:06 | 40.71757 | -74.40091 | 7983 ft | 161 kts | 247° |
| 2026-05-01 08:06 | 40.70736 | -74.42690 | 7967 ft | 160 kts | 247° |
| 2026-05-01 08:07 | 40.69705 | -74.45312 | 7963 ft | 161 kts | 247° |
| 2026-05-01 08:07 | 40.68671 | -74.47939 | 7958 ft | 161 kts | 247° |
| 2026-05-01 08:08 | 40.68154 | -74.49254 | 7959 ft | 161 kts | 246° |
| 2026-05-01 08:08 | 40.67117 | -74.51885 | 7925 ft | 161 kts | 246° |
| 2026-05-01 08:09 | 40.66083 | -74.54506 | 7923 ft | 161 kts | 247° |
| 2026-05-01 08:09 | 40.65567 | -74.55814 | 7925 ft | 161 kts | 246° |
| 2026-05-01 08:09 | 40.65051 | -74.57121 | 7926 ft | 161 kts | 247° |
| 2026-05-01 08:10 | 40.64026 | -74.59716 | 7926 ft | 160 kts | 247° |
| 2026-05-01 08:10 | 40.62992 | -74.62331 | 7921 ft | 161 kts | 246° |
| 2026-05-01 08:11 | 40.61954 | -74.64954 | 7923 ft | 161 kts | 246° |
| 2026-05-01 08:11 | 40.60915 | -74.67575 | 7923 ft | 161 kts | 246° |
| 2026-05-01 08:12 | 40.59877 | -74.70191 | 7924 ft | 161 kts | 246° |
| 2026-05-01 08:12 | 40.59367 | -74.71481 | 7925 ft | 161 kts | 246° |
| 2026-05-01 08:12 | 40.58134 | -74.73942 | 7911 ft | 166 kts | 227° |
| 2026-05-01 08:13 | 40.57144 | -74.74763 | 7906 ft | 172 kts | 210° |
| 2026-05-01 08:13 | 40.56024 | -74.75319 | 7911 ft | 172 kts | 208° |
| 2026-05-01 08:13 | 40.53788 | -74.76449 | 7910 ft | 171 kts | 208° |
| 2026-05-01 08:14 | 40.52685 | -74.77006 | 7912 ft | 172 kts | 208° |
| 2026-05-01 08:14 | 40.51569 | -74.77570 | 7912 ft | 172 kts | 208° |
| 2026-05-01 08:14 | 40.50452 | -74.78132 | 7911 ft | 172 kts | 208° |
| 2026-05-01 08:14 | 40.49334 | -74.78697 | 7912 ft | 172 kts | 208° |
| 2026-05-01 08:15 | 40.48217 | -74.79259 | 7913 ft | 172 kts | 208° |
| 2026-05-01 08:15 | 40.45973 | -74.80392 | 7590 ft | 171 kts | 208° |
| 2026-05-01 08:15 | 40.44863 | -74.80950 | 7336 ft | 170 kts | 207° |
| 2026-05-01 08:16 | 40.43759 | -74.81507 | 7084 ft | 169 kts | 207° |
| 2026-05-01 08:16 | 40.42657 | -74.82061 | 6833 ft | 169 kts | 206° |
| 2026-05-01 08:16 | 40.41557 | -74.82615 | 6586 ft | 169 kts | 206° |
| 2026-05-01 08:16 | 40.40454 | -74.83169 | 6336 ft | 169 kts | 206° |
| 2026-05-01 08:17 | 40.39353 | -74.83723 | 6072 ft | 170 kts | 206° |
| 2026-05-01 08:17 | 40.38263 | -74.84270 | 5815 ft | 170 kts | 206° |
| 2026-05-01 08:17 | 40.37155 | -74.84827 | 5553 ft | 171 kts | 206° |
| 2026-05-01 08:17 | 40.36041 | -74.85386 | 5296 ft | 171 kts | 206° |
| 2026-05-01 08:18 | 40.34924 | -74.85946 | 5036 ft | 172 kts | 206° |
| 2026-05-01 08:18 | 40.32666 | -74.87055 | 4512 ft | 174 kts | 205° |
| 2026-05-01 08:19 | 40.30403 | -74.88097 | 4132 ft | 169 kts | 204° |
| 2026-05-01 08:19 | 40.29311 | -74.88566 | 4130 ft | 163 kts | 202° |
| 2026-05-01 08:19 | 40.28240 | -74.89002 | 4131 ft | 160 kts | 202° |
| 2026-05-01 08:19 | 40.27261 | -74.89620 | 4130 ft | 155 kts | 215° |
| 2026-05-01 08:20 | 40.26281 | -74.90241 | 4128 ft | 157 kts | 209° |
| 2026-05-01 08:20 | 40.25269 | -74.90786 | 4126 ft | 157 kts | 209° |
| 2026-05-01 08:20 | 40.24300 | -74.91417 | 4129 ft | 155 kts | 212° |
| 2026-05-01 08:20 | 40.23325 | -74.92041 | 4130 ft | 156 kts | 211° |
| 2026-05-01 08:21 | 40.22344 | -74.92675 | 3894 ft | 164 kts | 212° |
| 2026-05-01 08:21 | 40.21288 | -74.93354 | 3530 ft | 169 kts | 212° |
| 2026-05-01 08:21 | 40.20237 | -74.94024 | 3178 ft | 171 kts | 212° |
| 2026-05-01 08:21 | 40.19156 | -74.94699 | 2814 ft | 173 kts | 212° |
| 2026-05-01 08:22 | 40.18058 | -74.95372 | 2446 ft | 175 kts | 211° |
| 2026-05-01 08:22 | 40.16951 | -74.96039 | 2088 ft | 175 kts | 210° |
| 2026-05-01 08:22 | 40.15881 | -74.96670 | 2029 ft | 161 kts | 211° |
| 2026-05-01 08:22 | 40.14850 | -74.97111 | 1977 ft | 150 kts | 195° |
| 2026-05-01 08:23 | 40.13924 | -74.97244 | 1880 ft | 121 kts | 189° |
| 2026-05-01 08:23 | 40.13108 | -74.97267 | 1752 ft | 115 kts | 187° |
| 2026-05-01 08:23 | 40.12351 | -74.97305 | 1655 ft | 104 kts | 191° |
| 2026-05-01 08:23 | 40.11664 | -74.97439 | 1462 ft | 97 kts | 203° |
| 2026-05-01 08:24 | 40.11048 | -74.97706 | 1207 ft | 90 kts | 214° |
| 2026-05-01 08:24 | 40.10523 | -74.98089 | 980 ft | 82 kts | 225° |
| 2026-05-01 08:24 | 40.10099 | -74.98558 | 744 ft | 77 kts | 233° |
| 2026-05-01 08:24 | 40.09765 | -74.99054 | 591 ft | 69 kts | 236° |
| 2026-05-01 08:25 | 40.09432 | -74.99550 | 471 ft | 74 kts | 235° |
| 2026-05-01 08:25 | 40.09097 | -75.00049 | 274 ft | 71 kts | 232° |
| 2026-05-01 08:25 | 40.08787 | -75.00503 | 116 ft | 60 kts | 232° |
| 2026-05-01 08:25 | 40.08657 | -75.00693 | 113 ft | 0 kts | 230° |
| 2026-05-01 08:26 | 40.08654 | -75.00713 | 113 ft | 5 kts | 283° |
| 2026-05-01 08:26 | 40.08695 | -75.00768 | 113 ft | 12 kts | 331° |
| 2026-05-01 08:26 | 40.08779 | -75.00733 | 113 ft | 16 kts | 47° |
| 2026-05-01 08:26 | 40.08822 | -75.00672 | 114 ft | 0 kts | 48° |